Time;durP1;ratioP1;P1;durP2;ratioP2;P2;SDS_P1;SDS_P2;PMS_P1;PMS_P2;Temp;Humidity;BMP_temperature;BMP_pressure;BME280_temperature;BME280_humidity;BME280_pressure;Samples;Min_cycle;Max_cycle;Signal;HPM_P1;HPM_P2
2022/11/18 00:01:41;;;;;;;15.80;10.10;;;;;;;5.44;100.00;96054.41;107784;1269;59799;-71
2022/11/18 00:04:12;;;;;;;15.50;8.80;;;;;;;5.43;100.00;96054.83;107779;1268;59706;-71
2022/11/18 00:06:42;;;;;;;18.10;10.50;;;;;;;5.42;100.00;96060.10;107765;1267;72052;-71
2022/11/18 00:09:11;;;;;;;13.80;9.50;;;;;;;5.41;100.00;96065.02;107822;1267;69202;-71
2022/11/18 00:14:29;;;;;;;12.60;7.60;;;;;;;5.40;100.00;96069.94;107733;1267;59743;-71
2022/11/18 00:17:01;;;;;;;12.90;8.50;;;;;;;5.39;100.00;96073.27;107761;1266;59722;-71
2022/11/18 00:19:37;;;;;;;14.30;9.30;;;;;;;5.38;100.00;96076.27;107834;1267;71339;-71
2022/11/18 00:22:11;;;;;;;12.90;8.50;;;;;;;5.38;100.00;96071.26;107810;1272;67307;-71
2022/11/18 00:24:41;;;;;;;13.90;9.10;;;;;;;5.38;100.00;96064.89;107747;1268;68756;-71
2022/11/18 00:27:10;;;;;;;16.90;9.10;;;;;;;5.39;100.00;96064.68;107753;1267;59731;-71
2022/11/18 00:29:40;;;;;;;15.50;10.20;;;;;;;5.38;100.00;96066.77;107774;1267;59828;-71
2022/11/18 00:32:09;;;;;;;16.10;9.60;;;;;;;5.38;100.00;96070.77;107771;1267;70411;-71
2022/11/18 00:34:41;;;;;;;11.50;7.60;;;;;;;5.37;100.00;96070.70;107774;1267;69218;-71
2022/11/18 00:37:11;;;;;;;13.50;9.30;;;;;;;5.37;100.00;96077.57;107729;1267;69411;-71
2022/11/18 00:39:41;;;;;;;15.00;9.70;;;;;;;5.37;100.00;96080.68;107752;1267;59730;-71
2022/11/18 00:45:00;;;;;;;12.30;8.50;;;;;;;5.38;100.00;96070.79;107806;1269;71425;-71
2022/11/18 00:47:29;;;;;;;16.60;10.40;;;;;;;5.35;100.00;96063.68;107892;1267;68332;-71
2022/11/18 00:49:59;;;;;;;15.40;10.10;;;;;;;5.35;100.00;96055.56;107765;1264;69290;-71
2022/11/18 00:52:29;;;;;;;;;;;;;;;5.34;100.00;96057.73;107876;1267;60112;-71
2022/11/18 00:54:58;;;;;;;15.80;10.60;;;;;;;5.33;100.00;96054.20;107898;1259;59655;-71
2022/11/18 00:57:28;;;;;;;;;;;;;;;5.33;100.00;96050.91;107822;1267;71599;-71
2022/11/18 00:59:58;;;;;;;12.60;8.30;;;;;;;5.32;100.00;96044.23;107740;1267;69065;-71
2022/11/18 01:02:29;;;;;;;15.60;9.60;;;;;;;5.33;100.00;96045.23;107672;1267;69106;-71
2022/11/18 01:04:59;;;;;;;;;;;;;;;5.33;100.00;96038.83;107675;1270;59703;-70
2022/11/18 01:07:28;;;;;;;13.70;8.70;;;;;;;5.34;100.00;96031.98;107824;1267;59733;-70
2022/11/18 01:09:58;;;;;;;21.40;11.10;;;;;;;5.36;100.00;96011.48;107741;1267;71401;-69
2022/11/18 01:15:23;;;;;;;19.30;11.00;;;;;;;5.31;100.00;96001.83;107721;1267;69713;-69
2022/11/18 01:17:52;;;;;;;20.10;12.30;;;;;;;5.29;100.00;96013.02;107637;1267;59753;-69
2022/11/18 01:20:22;;;;;;;18.60;11.60;;;;;;;5.27;100.00;96031.64;107783;1267;59692;-69
2022/11/18 01:22:52;;;;;;;14.70;8.80;;;;;;;5.28;100.00;96019.37;107738;1267;71321;-70
2022/11/18 01:25:22;;;;;;;15.20;9.60;;;;;;;5.28;100.00;96016.55;107751;1267;69092;-70
2022/11/18 01:27:52;;;;;;;18.00;11.20;;;;;;;5.28;100.00;96018.33;107695;1267;69939;-70
2022/11/18 01:30:22;;;;;;;15.40;9.80;;;;;;;5.28;100.00;96014.66;107684;1267;59722;-70
2022/11/18 01:32:53;;;;;;;12.90;8.90;;;;;;;5.29;100.00;96020.64;107634;1267;59707;-70
2022/11/18 01:35:22;;;;;;;13.60;8.50;;;;;;;5.29;100.00;96019.42;107710;1267;72022;-70
2022/11/18 01:37:52;;;;;;;;;;;;;;;5.30;100.00;96018.66;107650;1267;69304;-70
2022/11/18 01:40:22;;;;;;;15.00;8.20;;;;;;;5.29;100.00;96012.86;107722;1267;68496;-70
2022/11/18 01:42:53;;;;;;;13.50;8.00;;;;;;;5.29;100.00;96016.16;107630;1271;59754;-70
2022/11/18 01:45:38;;;;;;;12.60;7.50;;;;;;;5.29;100.00;96017.86;107657;1268;59703;-70
2022/11/18 01:48:23;;;;;;;15.10;9.00;;;;;;;5.29;100.00;96013.85;107790;1267;70648;-70
2022/11/18 01:51:01;;;;;;;17.80;9.50;;;;;;;5.29;100.00;96007.49;107767;1267;69001;-71
2022/11/18 01:53:37;;;;;;;14.90;9.70;;;;;;;5.30;100.00;96008.48;107688;1267;68343;-71
2022/11/18 01:56:14;;;;;;;15.60;9.70;;;;;;;5.29;100.00;96002.17;107897;1267;59781;-70
2022/11/18 01:59:05;;;;;;;13.40;8.30;;;;;;;5.30;100.00;95996.05;107789;1267;59673;-70
2022/11/18 02:01:36;;;;;;;16.40;9.60;;;;;;;5.30;100.00;95991.85;107784;1267;71408;-71
2022/11/18 02:04:06;;;;;;;;;;;;;;;5.30;100.00;95989.27;107796;1265;68282;-71
2022/11/18 02:06:37;;;;;;;13.90;9.10;;;;;;;5.30;100.00;95989.61;107792;1267;68940;-71
2022/11/18 02:09:08;;;;;;;17.90;10.60;;;;;;;5.30;100.00;95985.85;107623;1270;59766;-71
2022/11/18 02:11:49;;;;;;;14.70;9.20;;;;;;;5.30;100.00;95983.21;107712;1267;59758;-71
2022/11/18 02:14:25;;;;;;;15.30;9.60;;;;;;;5.29;100.00;95981.06;107734;1267;71379;-71
2022/11/18 02:17:23;;;;;;;13.60;9.00;;;;;;;5.29;100.00;95975.58;107757;1265;69232;-71
2022/11/18 02:20:06;;;;;;;20.20;10.90;;;;;;;5.28;100.00;95969.79;107486;1267;68769;-71
2022/11/18 02:23:04;;;;;;;15.30;9.50;;;;;;;5.28;100.00;95968.89;107741;1267;59718;-71
2022/11/18 02:25:54;;;;;;;16.00;9.40;;;;;;;5.28;100.00;95969.41;107778;1267;59670;-71
2022/11/18 02:28:24;;;;;;;;;;;;;;;5.28;100.00;95969.45;107778;1267;71446;-71
2022/11/18 02:31:07;;;;;;;16.20;9.00;;;;;;;5.26;100.00;95968.83;107682;1267;68985;-71
2022/11/18 02:34:13;;;;;;;15.80;9.50;;;;;;;5.26;100.00;95965.79;107679;1267;69744;-71
2022/11/18 02:36:56;;;;;;;19.00;10.50;;;;;;;5.24;100.00;95960.92;107605;1267;59783;-71
2022/11/18 02:39:44;;;;;;;16.50;10.00;;;;;;;5.23;100.00;95958.75;107652;1267;59668;-71
2022/11/18 02:42:16;;;;;;;17.70;10.50;;;;;;;5.21;100.00;95963.21;107788;1267;71758;-72
2022/11/18 02:44:52;;;;;;;17.90;10.60;;;;;;;5.20;100.00;95958.24;107895;1267;69233;-70
2022/11/18 02:47:26;;;;;;;16.40;10.00;;;;;;;5.20;100.00;95962.11;107661;1267;69175;-70
2022/11/18 02:50:05;;;;;;;16.80;10.50;;;;;;;5.20;100.00;95969.70;107711;1267;59705;-69
2022/11/18 02:52:39;;;;;;;15.40;10.70;;;;;;;5.18;100.00;95973.45;107634;1263;59712;-69
2022/11/18 02:55:14;;;;;;;18.10;11.30;;;;;;;5.18;100.00;95972.61;107747;1267;71304;-71
2022/11/18 02:57:46;;;;;;;16.30;10.40;;;;;;;5.17;100.00;95974.02;107784;1267;69312;-71
2022/11/18 03:00:16;;;;;;;14.30;9.50;;;;;;;5.16;100.00;95970.69;107711;1267;68516;-69
2022/11/18 03:02:48;;;;;;;14.20;9.70;;;;;;;5.15;100.00;95973.48;107654;1265;59732;-69
2022/11/18 03:05:41;;;;;;;14.90;9.40;;;;;;;5.17;100.00;95975.96;107732;1267;59702;-69
2022/11/18 03:08:18;;;;;;;13.30;8.50;;;;;;;5.18;100.00;95976.23;107710;1267;69641;-71
2022/11/18 03:11:13;;;;;;;12.40;8.10;;;;;;;5.19;100.00;95975.95;107759;1267;69793;-71
2022/11/18 03:13:53;;;;;;;11.30;8.20;;;;;;;5.20;100.00;95974.33;107743;1269;69143;-69
2022/11/18 03:16:30;;;;;;;14.50;9.00;;;;;;;5.23;100.00;95974.48;107656;1267;59754;-69
2022/11/18 03:19:09;;;;;;;11.60;7.80;;;;;;;5.24;100.00;95980.91;107716;1267;59716;-69
2022/11/18 03:21:50;;;;;;;10.80;6.90;;;;;;;5.26;100.00;95976.64;107644;1267;71665;-70
2022/11/18 03:24:32;;;;;;;12.20;7.90;;;;;;;5.27;100.00;95977.24;107632;1268;69150;-70
2022/11/18 03:27:28;;;;;;;12.60;7.90;;;;;;;5.28;100.00;95981.88;107758;1267;69718;-70
2022/11/18 03:30:04;;;;;;;12.10;7.20;;;;;;;5.29;100.00;95984.74;107748;1267;59765;-70
2022/11/18 03:32:38;;;;;;;11.90;8.00;;;;;;;5.30;100.00;95978.09;107640;1267;59784;-70
2022/11/18 03:35:17;;;;;;;11.60;7.60;;;;;;;5.30;100.00;95976.50;107643;1263;70628;-70
2022/11/18 03:37:49;;;;;;;14.70;8.70;;;;;;;5.30;100.00;95982.36;107729;1267;69852;-70
2022/11/18 03:40:26;;;;;;;12.80;8.20;;;;;;;5.30;100.00;95983.91;107749;1267;68345;-70
2022/11/18 03:43:14;;;;;;;13.60;8.30;;;;;;;5.30;100.00;95979.91;107699;1267;59773;-71
2022/11/18 03:46:00;;;;;;;12.80;8.00;;;;;;;5.31;100.00;95977.77;107726;1267;59745;-70
2022/11/18 03:48:37;;;;;;;12.00;7.90;;;;;;;5.32;100.00;95980.16;107630;1263;71836;-70
2022/11/18 03:51:13;;;;;;;13.30;8.60;;;;;;;5.32;100.00;95987.77;107716;1267;69801;-70
2022/11/18 03:53:56;;;;;;;13.60;8.50;;;;;;;5.32;100.00;95993.12;107719;1267;69248;-70
2022/11/18 03:56:31;;;;;;;12.20;8.40;;;;;;;5.32;100.00;95991.39;107666;1263;59833;-70
2022/11/18 03:59:09;;;;;;;14.40;8.20;;;;;;;5.32;100.00;95991.70;107719;1267;59702;-71
2022/11/18 04:01:46;;;;;;;11.90;7.90;;;;;;;5.32;100.00;95983.95;107656;1265;70660;-70
2022/11/18 04:04:16;;;;;;;12.40;8.40;;;;;;;5.31;100.00;95977.11;107798;1267;69548;-70
2022/11/18 04:06:54;;;;;;;11.70;7.90;;;;;;;5.29;100.00;95975.34;107770;1263;68470;-70
2022/11/18 04:09:29;;;;;;;12.10;7.50;;;;;;;5.28;100.00;95969.75;107778;1267;59764;-71
2022/11/18 04:12:07;;;;;;;13.00;7.80;;;;;;;5.27;100.00;95966.02;107777;1263;59737;-70
2022/11/18 04:14:42;;;;;;;13.40;9.10;;;;;;;5.26;100.00;95959.39;107771;1267;71419;-71
2022/11/18 04:17:16;;;;;;;13.60;8.40;;;;;;;5.22;100.00;95958.61;107731;1267;69789;-70
2022/11/18 04:19:46;;;;;;;13.80;9.10;;;;;;;5.20;100.00;95960.86;107734;1267;68410;-70
2022/11/18 04:22:16;;;;;;;12.40;8.40;;;;;;;5.17;100.00;95958.16;107795;1262;59773;-71
2022/11/18 04:24:48;;;;;;;12.80;8.60;;;;;;;5.13;100.00;95963.76;107638;1265;59710;-71
2022/11/18 04:27:18;;;;;;;10.40;7.50;;;;;;;5.11;100.00;95962.72;107755;1267;71396;-71
2022/11/18 04:29:47;;;;;;;14.90;8.80;;;;;;;5.08;100.00;95969.83;107656;1267;69416;-71
2022/11/18 04:32:17;;;;;;;14.00;8.80;;;;;;;5.06;100.00;95970.88;107699;1267;69798;-71
2022/11/18 04:34:45;;;;;;;13.20;8.80;;;;;;;5.03;100.00;95963.52;107636;1267;59752;-71
2022/11/18 04:37:15;;;;;;;17.20;10.30;;;;;;;5.00;100.00;95966.98;107644;1267;59701;-71
2022/11/18 04:39:44;;;;;;;16.40;11.20;;;;;;;4.97;100.00;95974.11;107658;1267;71383;-71
2022/11/18 04:42:14;;;;;;;14.90;10.40;;;;;;;4.95;100.00;95968.61;107772;1262;69120;-71
2022/11/18 04:44:44;;;;;;;12.20;8.30;;;;;;;4.91;100.00;95967.27;107748;1268;69182;-71
2022/11/18 04:47:13;;;;;;;13.30;9.00;;;;;;;4.89;100.00;95966.92;107759;1267;59800;-71
2022/11/18 04:49:43;;;;;;;13.40;8.90;;;;;;;4.87;100.00;95961.23;107734;1267;59713;-71
2022/11/18 04:52:13;;;;;;;14.30;9.00;;;;;;;4.85;100.00;95959.64;107907;1267;71195;-71
2022/11/18 04:54:42;;;;;;;14.60;10.70;;;;;;;4.82;100.00;95957.94;107770;1263;69110;-71
2022/11/18 04:57:12;;;;;;;19.90;13.90;;;;;;;4.80;100.00;95954.48;107801;1263;69340;-70
2022/11/18 04:59:41;;;;;;;19.50;12.90;;;;;;;4.77;100.00;95951.40;107755;1263;59695;-70
2022/11/18 05:02:12;;;;;;;17.60;12.40;;;;;;;4.74;100.00;95950.58;107712;1267;59677;-71
2022/11/18 05:04:41;;;;;;;18.40;11.50;;;;;;;4.71;100.00;95953.22;107723;1267;71471;-71
2022/11/18 05:07:14;;;;;;;17.70;11.80;;;;;;;4.69;100.00;95955.09;107702;1267;69823;-71
2022/11/18 05:09:43;;;;;;;18.80;13.20;;;;;;;4.66;100.00;95953.57;107639;1267;68492;-71
2022/11/18 05:15:02;;;;;;;17.50;10.70;;;;;;;4.58;100.00;95942.39;107679;1267;59702;-71
2022/11/18 05:17:34;;;;;;;15.40;10.90;;;;;;;4.55;100.00;95940.70;107745;1267;70283;-71
2022/11/18 05:20:03;;;;;;;15.30;9.70;;;;;;;4.52;100.00;95934.55;107718;1267;69480;-71
2022/11/18 05:22:32;;;;;;;11.60;8.10;;;;;;;4.49;100.00;95923.26;107670;1267;69910;-70
2022/11/18 05:25:03;;;;;;;15.60;10.40;;;;;;;4.44;100.00;95924.09;107646;1267;59769;-70
2022/11/18 05:27:33;;;;;;;17.20;11.20;;;;;;;4.43;100.00;95931.42;107724;1263;59803;-70
2022/11/18 05:30:03;;;;;;;16.60;11.40;;;;;;;4.48;100.00;95950.26;107804;1267;71263;-71
2022/11/18 05:32:32;;;;;;;16.90;10.60;;;;;;;4.49;100.00;95963.61;107720;1259;68878;-70
2022/11/18 05:35:01;;;;;;;19.40;11.80;;;;;;;4.50;100.00;95964.91;107680;1267;69237;-70
2022/11/18 05:37:31;;;;;;;15.80;10.00;;;;;;;4.48;100.00;95966.59;107713;1267;59695;-70
2022/11/18 05:40:00;;;;;;;14.20;9.80;;;;;;;4.43;100.00;95965.90;107700;1265;59782;-70
2022/11/18 05:45:19;;;;;;;13.20;8.30;;;;;;;4.32;100.00;95964.27;107722;1263;69183;-71
2022/11/18 05:48:01;;;;;;;12.60;8.20;;;;;;;4.28;100.00;95967.33;107721;1267;69268;-71
2022/11/18 05:50:33;;;;;;;13.10;8.10;;;;;;;4.26;100.00;95969.07;107684;1265;59684;-70
2022/11/18 05:53:03;;;;;;;14.10;8.40;;;;;;;4.24;100.00;95975.01;107741;1267;59681;-71
2022/11/18 05:55:43;;;;;;;12.00;7.80;;;;;;;4.25;100.00;95977.91;107744;1267;70851;-71
2022/11/18 05:58:12;;;;;;;13.60;8.30;;;;;;;4.27;100.00;95980.87;107786;1263;68354;-71
2022/11/18 06:00:42;;;;;;;11.30;8.30;;;;;;;4.30;100.00;95982.20;107741;1259;68257;-71
2022/11/18 06:03:20;;;;;;;12.60;8.60;;;;;;;4.33;100.00;95980.92;107636;1267;59734;-71
2022/11/18 06:05:57;;;;;;;17.60;11.50;;;;;;;4.38;100.00;95981.83;107694;1267;59742;-70
2022/11/18 06:08:30;;;;;;;17.60;11.60;;;;;;;4.42;100.00;95980.65;107692;1263;71493;-71
2022/11/18 06:11:00;;;;;;;18.20;11.70;;;;;;;4.46;100.00;95970.39;107786;1263;68455;-71
2022/11/18 06:13:38;;;;;;;24.30;15.20;;;;;;;4.48;100.00;95970.55;107755;1267;69428;-71
2022/11/18 06:16:06;;;;;;;22.80;15.10;;;;;;;4.49;100.00;95972.39;107675;1267;59762;-71
2022/11/18 06:18:35;;;;;;;19.60;14.40;;;;;;;4.52;100.00;95976.17;107792;1267;59753;-71
2022/11/18 06:21:05;;;;;;;18.20;12.50;;;;;;;4.54;100.00;95979.95;107774;1267;71534;-70
2022/11/18 06:23:36;;;;;;;24.90;16.70;;;;;;;4.57;100.00;95979.40;107831;1267;68476;-71
2022/11/18 06:26:08;;;;;;;26.50;17.50;;;;;;;4.58;100.00;95980.36;107755;1267;69275;-70
2022/11/18 06:28:38;;;;;;;22.60;15.30;;;;;;;4.59;100.00;95983.58;107724;1267;59794;-70
2022/11/18 06:31:07;;;;;;;19.80;13.30;;;;;;;4.63;100.00;95989.52;107761;1267;59694;-71
2022/11/18 06:33:36;;;;;;;18.10;12.10;;;;;;;4.70;100.00;95991.80;107791;1267;71389;-70
2022/11/18 06:36:05;;;;;;;16.20;10.90;;;;;;;4.78;100.00;95995.36;107740;1267;68085;-70
2022/11/18 06:38:34;;;;;;;16.00;10.70;;;;;;;4.87;100.00;95993.66;107778;1266;69271;-70
2022/11/18 06:41:04;;;;;;;12.70;9.20;;;;;;;4.98;100.00;96003.88;107802;1267;59776;-70
2022/11/18 06:43:40;;;;;;;81.50;41.80;;;;;;;5.08;99.97;96007.63;107744;1267;59711;-71
2022/11/18 06:49:02;;;;;;;32.60;17.10;;;;;;;5.38;99.82;96011.67;107784;1263;68383;-71
2022/11/18 06:51:31;;;;;;;21.70;11.50;;;;;;;5.53;99.47;96012.14;107773;1267;69094;-71
2022/11/18 06:54:00;;;;;;;16.50;11.30;;;;;;;5.67;98.41;96007.11;107700;1267;59781;-71
2022/11/18 06:56:38;;;;;;;15.80;11.40;;;;;;;5.80;97.10;96000.20;107746;1263;59711;-70
2022/11/18 06:59:07;;;;;;;16.80;11.00;;;;;;;5.93;96.55;95997.00;107654;1267;71655;-71
2022/11/18 07:01:38;;;;;;;18.10;13.20;;;;;;;6.04;96.36;96000.31;107744;1263;69097;-71
2022/11/18 07:04:07;;;;;;;20.30;14.00;;;;;;;6.12;96.57;95998.83;107722;1267;69897;-71
2022/11/18 07:06:36;;;;;;;14.50;10.80;;;;;;;6.20;96.93;95999.83;107698;1266;59691;-71
2022/11/18 07:09:06;;;;;;;16.50;10.90;;;;;;;6.26;96.03;95996.52;107750;1267;59782;-70
2022/11/18 07:11:37;;;;;;;15.60;10.70;;;;;;;6.39;94.67;96001.28;107716;1267;71873;-70
2022/11/18 07:14:07;;;;;;;11.90;8.50;;;;;;;6.60;93.28;96002.67;107351;1263;508888;-70
2022/11/18 07:16:36;;;;;;;11.70;7.90;;;;;;;6.80;91.93;95991.42;107671;1263;69395;-71
2022/11/18 07:19:12;;;;;;;10.50;7.20;;;;;;;6.97;90.99;95987.98;107828;1267;59780;-71
2022/11/18 07:21:42;;;;;;;11.60;7.50;;;;;;;7.11;91.20;95985.92;107721;1263;59661;-71
2022/11/18 07:24:13;;;;;;;10.10;7.70;;;;;;;7.30;93.76;95977.11;107876;1267;70637;-71
2022/11/18 07:26:43;;;;;;;9.80;7.10;;;;;;;7.49;91.84;95967.89;107740;1263;68299;-73
2022/11/18 07:29:14;;;;;;;15.30;9.50;;;;;;;7.85;94.38;95963.89;107902;1263;69086;-71
2022/11/18 07:31:43;;;;;;;14.80;10.50;;;;;;;8.28;91.27;95962.64;107858;1267;59722;-71
2022/11/18 07:34:12;;;;;;;15.30;10.30;;;;;;;8.65;88.77;95965.98;107798;1267;59655;-71
2022/11/18 07:36:42;;;;;;;16.70;11.00;;;;;;;8.98;90.17;95967.75;107768;1263;70473;-70
2022/11/18 07:39:11;;;;;;;;;;;;;;;9.22;90.48;95971.02;107724;1267;69458;-70
2022/11/18 07:41:41;;;;;;;15.90;10.10;;;;;;;9.36;90.11;95980.69;107678;1267;68705;-71
2022/11/18 07:44:17;;;;;;;17.20;12.60;;;;;;;9.37;82.03;95983.92;107682;1266;59750;-71
2022/11/18 07:46:53;;;;;;;14.70;10.10;;;;;;;9.50;83.45;95980.77;107787;1267;59800;-68
2022/11/18 07:49:28;;;;;;;17.20;11.50;;;;;;;9.74;80.15;95980.34;107871;1267;70308;-70
2022/11/18 07:51:58;;;;;;;19.50;12.40;;;;;;;10.02;76.82;95973.90;107777;1263;69180;-70
2022/11/18 07:54:29;;;;;;;22.50;13.30;;;;;;;10.27;75.53;95971.98;107739;1267;68446;-71
2022/11/18 07:56:58;;;;;;;14.50;9.60;;;;;;;10.51;74.27;95974.39;107702;1263;59757;-69
2022/11/18 07:59:32;;;;;;;11.00;7.90;;;;;;;10.74;74.57;95967.50;107742;1267;59689;-70
2022/11/18 08:02:15;;;;;;;9.50;7.00;;;;;;;11.01;77.57;95961.91;107713;1265;71672;-71
2022/11/18 08:04:55;;;;;;;9.50;6.90;;;;;;;11.19;77.20;95956.48;107796;1263;70283;-71
2022/11/18 08:07:43;;;;;;;9.70;7.00;;;;;;;11.52;76.85;95949.95;107740;1267;70396;-70
2022/11/18 08:10:12;;;;;;;9.30;7.20;;;;;;;11.69;71.45;95944.01;107933;1263;59716;-70
2022/11/18 08:12:41;;;;;;;8.20;6.00;;;;;;;12.09;74.70;95943.64;107663;1263;59695;-71
2022/11/18 08:15:10;;;;;;;7.50;5.80;;;;;;;12.53;68.06;95940.84;107778;1260;71292;-71
2022/11/18 08:17:39;;;;;;;7.60;5.10;;;;;;;12.87;65.33;95942.48;107798;1263;68239;-72
2022/11/18 08:20:09;;;;;;;6.50;5.40;;;;;;;13.20;66.47;95942.41;107805;1265;68431;-71
2022/11/18 08:22:37;;;;;;;6.70;4.80;;;;;;;13.56;66.99;95947.94;107734;1267;59756;-75
2022/11/18 08:25:07;;;;;;;7.10;5.00;;;;;;;13.76;65.03;95943.35;107798;1266;59687;-73
2022/11/18 08:27:36;;;;;;;5.60;4.30;;;;;;;13.81;63.01;95943.88;107738;1267;70452;-73
2022/11/18 08:30:05;;;;;;;5.90;4.10;;;;;;;13.88;63.13;95942.80;107773;1265;69256;-72
2022/11/18 08:32:34;;;;;;;5.90;4.30;;;;;;;13.97;62.42;95943.52;107822;1267;69271;-71
2022/11/18 08:35:03;;;;;;;5.90;4.10;;;;;;;14.21;60.39;95944.52;107611;1267;59722;-71
2022/11/18 08:37:38;;;;;;;3.70;2.90;;;;;;;14.80;60.58;95946.09;107855;1267;59700;-73
2022/11/18 08:40:10;;;;;;;4.50;3.20;;;;;;;15.24;56.97;95944.34;107767;1263;72069;-71
2022/11/18 08:42:41;;;;;;;4.50;3.50;;;;;;;15.78;54.84;95936.55;107693;1263;70168;-77
2022/11/18 08:45:10;;;;;;;4.30;3.30;;;;;;;16.20;53.83;95939.02;107899;1267;68791;-72
2022/11/18 08:47:39;;;;;;;3.40;2.70;;;;;;;16.69;53.67;95941.33;107719;1267;59739;-73
2022/11/18 08:50:10;;;;;;;3.80;2.90;;;;;;;17.24;52.72;95942.29;107859;1267;59685;-74
2022/11/18 08:52:39;;;;;;;4.50;3.30;;;;;;;17.57;50.95;95942.43;107908;1265;71974;-74
2022/11/18 08:55:08;;;;;;;5.10;3.50;;;;;;;17.76;50.68;95936.31;107865;1263;69178;-72
2022/11/18 08:57:37;;;;;;;4.00;2.90;;;;;;;17.67;49.38;95939.21;107668;1267;69889;-73
2022/11/18 09:00:07;;;;;;;3.80;2.70;;;;;;;17.69;48.20;95932.95;107796;1267;60108;-73
2022/11/18 09:02:36;;;;;;;4.40;3.00;;;;;;;17.47;47.50;95928.49;107889;1266;60115;-72
2022/11/18 09:05:05;;;;;;;3.50;2.70;;;;;;;17.23;46.65;95927.91;107825;1266;71193;-73
2022/11/18 09:07:34;;;;;;;3.80;2.60;;;;;;;17.45;47.09;95928.02;107790;1267;68433;-71
2022/11/18 09:10:03;;;;;;;3.30;2.70;;;;;;;17.95;47.62;95916.79;107803;1263;69124;-71
2022/11/18 09:12:34;;;;;;;3.50;2.80;;;;;;;18.37;44.60;95910.64;107848;1267;59695;-74
2022/11/18 09:15:03;;;;;;;3.50;2.90;;;;;;;18.72;44.77;95907.71;107927;1267;59701;-73
2022/11/18 09:17:42;;;;;;;5.60;3.10;;;;;;;18.99;43.39;95906.01;107862;1267;71401;-72
2022/11/18 09:20:17;;;;;;;3.60;2.70;;;;;;;19.30;43.91;95905.89;107771;1266;69247;-73
2022/11/18 09:22:46;;;;;;;3.90;3.20;;;;;;;19.53;42.40;95907.34;107624;1269;67870;-73
2022/11/18 09:25:16;;;;;;;3.90;2.90;;;;;;;19.99;43.33;95911.73;107779;1265;59759;-76
2022/11/18 09:27:46;;;;;;;4.50;3.20;;;;;;;19.85;41.93;95913.91;107758;1269;59662;-71
2022/11/18 09:30:17;;;;;;;3.60;3.20;;;;;;;19.82;40.34;95908.78;107590;1269;70612;-72
2022/11/18 09:32:46;;;;;;;3.80;3.30;;;;;;;19.70;40.65;95913.05;107579;1268;69279;-72
2022/11/18 09:35:14;;;;;;;3.50;2.90;;;;;;;19.46;41.58;95916.80;107486;1265;69162;-71
2022/11/18 09:37:43;;;;;;;3.60;2.70;;;;;;;19.10;41.52;95910.23;107528;1268;59781;-74
2022/11/18 09:40:17;;;;;;;3.20;2.70;;;;;;;18.88;42.94;95904.77;107516;1268;59671;-71
2022/11/18 09:43:35;;;;;;;4.00;3.40;;;;;;;18.92;42.52;95899.48;107437;1270;71260;-73
2022/11/18 09:46:33;;;;;;;4.20;3.00;;;;;;;19.07;42.08;95903.20;107593;1270;69234;-72
2022/11/18 09:49:13;;;;;;;4.40;3.00;;;;;;;18.79;42.95;95898.55;107322;1270;69200;-71
2022/11/18 09:51:48;;;;;;;5.90;2.90;;;;;;;18.61;42.02;95896.91;107477;1265;59759;-72
2022/11/18 09:54:27;;;;;;;3.90;3.30;;;;;;;18.35;42.48;95889.39;107635;1270;59658;-74
2022/11/18 09:56:56;;;;;;;5.10;3.40;;;;;;;18.15;43.86;95887.31;107619;1266;71738;-70
2022/11/18 09:59:30;;;;;;;4.80;3.70;;;;;;;18.11;43.42;95884.27;107553;1270;69298;-71
2022/11/18 10:02:13;;;;;;;4.20;3.40;;;;;;;17.89;43.97;95879.55;107587;1266;69502;-73
2022/11/18 10:04:42;;;;;;;5.80;4.00;;;;;;;17.89;44.26;95874.96;107501;1270;59743;-72
2022/11/18 10:07:32;;;;;;;5.70;4.20;;;;;;;17.79;44.78;95880.48;107414;1272;59709;-73
2022/11/18 10:10:07;;;;;;;5.10;3.50;;;;;;;17.68;45.19;95878.33;107594;1266;71063;-73
2022/11/18 10:12:46;;;;;;;6.00;4.10;;;;;;;17.24;45.73;95875.21;107556;1266;68985;-73
2022/11/18 10:15:38;;;;;;;5.40;3.80;;;;;;;16.91;46.73;95866.93;107485;1266;68631;-70
2022/11/18 10:18:15;;;;;;;4.20;3.60;;;;;;;16.39;47.74;95858.52;107528;1272;59780;-72
2022/11/18 10:21:17;;;;;;;3.80;3.00;;;;;;;16.07;49.15;95853.72;107715;1263;59717;-73
2022/11/18 10:23:56;;;;;;;5.20;3.70;;;;;;;15.86;49.14;95850.85;107659;1269;71343;-80
2022/11/18 10:26:35;;;;;;;5.30;3.90;;;;;;;15.58;50.34;95851.27;107631;1269;69073;-75
2022/11/18 10:29:09;;;;;;;3.80;3.20;;;;;;;15.53;50.00;95851.33;107809;1265;69241;-74
2022/11/18 10:32:04;;;;;;;5.00;3.30;;;;;;;15.51;50.36;95846.81;107803;1266;59723;-73
2022/11/18 10:34:44;;;;;;;5.60;4.10;;;;;;;15.59;50.48;95851.02;107690;1265;60082;-73
2022/11/18 10:37:27;;;;;;;4.60;3.70;;;;;;;15.34;50.43;95844.60;107910;1269;71333;-74
2022/11/18 10:40:27;;;;;;;4.60;3.80;;;;;;;15.15;51.54;95837.34;107893;1265;69023;-74
2022/11/18 10:42:56;;;;;;;4.60;3.70;;;;;;;15.12;51.91;95835.06;107967;1263;69240;-72
2022/11/18 10:45:30;;;;;;;6.30;4.40;;;;;;;15.06;51.85;95832.78;107854;1269;59736;-73
2022/11/18 10:48:09;;;;;;;5.00;3.80;;;;;;;15.04;51.90;95831.73;107854;1268;59721;-73
2022/11/18 10:50:40;;;;;;;6.90;4.30;;;;;;;14.91;52.64;95838.55;107820;1268;71898;-71
2022/11/18 10:53:35;;;;;;;4.20;3.50;;;;;;;14.72;52.92;95839.13;107780;1266;69512;-72
2022/11/18 10:56:12;;;;;;;6.40;3.70;;;;;;;14.57;53.52;95835.93;107835;1269;68437;-72
2022/11/18 10:58:48;;;;;;;5.20;3.60;;;;;;;14.46;53.84;95829.20;107817;1269;59671;-72
2022/11/18 11:01:23;;;;;;;4.00;3.60;;;;;;;14.30;54.38;95821.58;107653;1266;59772;-71
2022/11/18 11:03:59;;;;;;;4.80;3.80;;;;;;;14.11;54.56;95820.75;107671;1265;71394;-72
2022/11/18 11:06:31;;;;;;;3.90;3.10;;;;;;;13.93;54.88;95818.96;107774;1269;69068;-73
2022/11/18 11:09:09;;;;;;;5.30;3.50;;;;;;;13.80;55.40;95813.27;107753;1265;68276;-71
2022/11/18 11:11:44;;;;;;;4.60;3.50;;;;;;;13.70;55.82;95809.23;107694;1269;59755;-74
2022/11/18 11:14:27;;;;;;;5.40;3.60;;;;;;;13.57;56.24;95808.42;107680;1269;59728;-71
2022/11/18 11:17:11;;;;;;;5.60;3.90;;;;;;;13.35;57.14;95807.64;107853;1266;70595;-71
2022/11/18 11:19:49;;;;;;;5.00;3.80;;;;;;;13.14;57.66;95809.17;107819;1269;69727;-72
2022/11/18 11:22:18;;;;;;;5.50;3.60;;;;;;;13.05;58.18;95802.54;107824;1269;69763;-71
2022/11/18 11:24:47;;;;;;;4.20;2.90;;;;;;;12.96;58.49;95804.70;107619;1266;59752;-73
2022/11/18 11:27:42;;;;;;;4.60;3.60;;;;;;;12.91;58.64;95803.84;107878;1266;59719;-71
2022/11/18 11:30:38;;;;;;;5.30;3.90;;;;;;;12.82;59.25;95796.10;107867;1266;71359;-73
2022/11/18 11:33:26;;;;;;;5.50;4.10;;;;;;;12.66;59.93;95799.54;107855;1263;68989;-72
2022/11/18 11:36:30;;;;;;;6.50;4.20;;;;;;;12.49;60.49;95800.05;107803;1269;68551;-71
2022/11/18 11:39:21;;;;;;;5.00;4.30;;;;;;;12.35;61.05;95799.84;107837;1265;59762;-72
2022/11/18 11:42:20;;;;;;;5.60;3.70;;;;;;;12.28;61.84;95798.47;107819;1265;59776;-70
2022/11/18 11:44:58;;;;;;;5.40;3.70;;;;;;;12.23;61.80;95793.27;107821;1269;71414;-72
2022/11/18 11:47:48;;;;;;;4.70;3.40;;;;;;;12.15;61.70;95789.88;107833;1267;69278;-72
2022/11/18 11:50:59;;;;;;;5.10;4.20;;;;;;;12.10;62.04;95786.16;107852;1265;69226;-73
2022/11/18 11:54:13;;;;;;;5.70;4.20;;;;;;;12.10;62.44;95784.30;107655;1266;59771;-73
2022/11/18 11:56:52;;;;;;;4.70;3.60;;;;;;;12.13;62.58;95784.14;107787;1265;59697;-73
2022/11/18 11:59:26;;;;;;;5.30;4.00;;;;;;;12.14;62.63;95786.46;107717;1267;70607;-72
2022/11/18 12:02:14;;;;;;;5.30;3.90;;;;;;;12.15;62.69;95784.59;107662;1265;69639;-72
2022/11/18 12:04:59;;;;;;;8.00;4.10;;;;;;;12.16;62.68;95780.31;107683;1265;68555;-72
2022/11/18 12:07:44;;;;;;;4.90;3.80;;;;;;;12.14;63.04;95777.55;107667;1265;59768;-72
2022/11/18 12:10:36;;;;;;;4.60;3.50;;;;;;;12.13;62.92;95774.73;107658;1267;59706;-73
2022/11/18 12:13:13;;;;;;;4.60;3.30;;;;;;;12.13;63.16;95768.73;107793;1263;71205;-73